createdAt,value
2022-11-15T00:02:12.854Z,0.80
2022-11-15T00:05:11.727Z,0.75
2022-11-15T00:08:10.990Z,0.75
2022-11-15T00:11:13.523Z,0.75
2022-11-15T00:14:12.067Z,0.60
2022-11-15T00:17:11.026Z,0.50
2022-11-15T00:20:09.926Z,0.70
2022-11-15T00:23:08.906Z,0.90
2022-11-15T00:26:07.567Z,0.77
2022-11-15T00:29:07.180Z,0.50
2022-11-15T00:32:05.829Z,0.90
2022-11-15T00:35:04.986Z,0.98
2022-11-15T00:38:04.121Z,0.63
2022-11-15T00:41:09.175Z,0.82
2022-11-15T00:44:07.975Z,0.93
2022-11-15T00:47:06.909Z,0.63
2022-11-15T00:50:05.900Z,0.80
2022-11-15T00:53:04.633Z,0.65
2022-11-15T00:56:02.866Z,0.85
2022-11-15T00:59:01.919Z,0.60
2022-11-15T01:02:00.365Z,1.10
2022-11-15T01:04:59.185Z,1.15
2022-11-15T01:07:58.282Z,0.90
2022-11-15T01:11:01.845Z,0.85
2022-11-15T01:14:00.115Z,0.95
2022-11-15T01:16:59.006Z,0.73
2022-11-15T01:19:57.322Z,0.80
2022-11-15T01:22:56.291Z,0.80
2022-11-15T01:25:59.703Z,0.70
2022-11-15T01:28:58.515Z,0.65
2022-11-15T01:31:56.669Z,0.70
2022-11-15T01:34:55.520Z,0.52
2022-11-15T01:37:53.707Z,1.15
2022-11-15T01:40:52.679Z,1.05
2022-11-15T01:43:54.227Z,0.93
2022-11-15T01:46:53.299Z,0.80
2022-11-15T01:49:57.109Z,0.70
2022-11-15T01:52:56.010Z,0.75
2022-11-15T01:55:55.461Z,0.90
2022-11-15T01:58:57.146Z,0.93
2022-11-15T02:01:55.685Z,0.80
2022-11-15T02:04:55.124Z,0.73
2022-11-15T02:07:53.792Z,0.88
2022-11-15T02:10:52.568Z,0.80
2022-11-15T02:13:51.247Z,0.75
2022-11-15T02:17:01.710Z,0.77
2022-11-15T02:20:35.247Z,0.85
2022-11-15T02:23:57.982Z,0.60
2022-11-15T02:27:23.783Z,1.00
2022-11-15T02:30:25.970Z,0.95
2022-11-15T02:33:51.279Z,0.80
2022-11-15T02:37:05.003Z,0.57
2022-11-15T02:40:25.260Z,0.60
2022-11-15T02:43:48.166Z,0.68
2022-11-15T02:47:08.178Z,0.60
2022-11-15T02:50:10.725Z,0.57
2022-11-15T02:53:10.151Z,0.88
2022-11-15T02:56:13.949Z,0.68
2022-11-15T02:59:47.686Z,0.60
2022-11-15T03:03:05.615Z,0.68
2022-11-15T03:06:39.177Z,0.40
2022-11-15T03:09:58.697Z,0.50
2022-11-15T03:13:09.307Z,0.50
2022-11-15T03:16:16.862Z,0.80
2022-11-15T03:19:35.175Z,0.40
2022-11-15T03:22:39.762Z,0.80
2022-11-15T03:25:46.870Z,0.50
2022-11-15T03:28:55.262Z,0.40
2022-11-15T03:31:58.605Z,0.40
2022-11-15T03:35:09.802Z,0.35
2022-11-15T03:38:25.420Z,0.35
2022-11-15T03:41:32.195Z,0.60
2022-11-15T03:44:53.628Z,0.40
2022-11-15T03:48:03.880Z,0.40
2022-11-15T03:51:02.354Z,0.43
2022-11-15T03:54:01.159Z,0.40
2022-11-15T03:56:59.635Z,0.35
2022-11-15T03:59:58.490Z,0.50
2022-11-15T04:02:56.857Z,0.40
2022-11-15T04:05:55.608Z,0.50
2022-11-15T04:08:53.742Z,0.30
2022-11-15T04:11:52.470Z,0.30
2022-11-15T04:15:08.447Z,0.75
2022-11-15T04:18:07.341Z,0.38
2022-11-15T04:21:20.904Z,0.50
2022-11-15T04:24:19.689Z,0.52
2022-11-15T04:27:18.083Z,0.60
2022-11-15T04:30:17.237Z,0.50
2022-11-15T04:33:16.281Z,0.52
2022-11-15T04:36:30.346Z,0.30
2022-11-15T04:39:28.655Z,0.40
2022-11-15T04:42:27.388Z,0.52
2022-11-15T04:45:25.564Z,0.57
2022-11-15T04:48:24.488Z,0.30
2022-11-15T04:51:22.681Z,0.30
2022-11-15T04:54:21.472Z,0.43
2022-11-15T04:57:19.740Z,0.70
2022-11-15T05:00:19.360Z,0.40
2022-11-15T05:03:33.178Z,0.30
2022-11-15T05:06:32.743Z,0.50
2022-11-15T05:09:30.933Z,0.25
2022-11-15T05:12:29.666Z,0.50
2022-11-15T05:15:27.815Z,0.40
2022-11-15T05:18:26.519Z,0.40
2022-11-15T05:21:25.197Z,0.55
2022-11-15T05:24:23.934Z,0.40
2022-11-15T05:27:22.119Z,0.40
2022-11-15T05:30:21.273Z,0.45
2022-11-15T05:33:20.071Z,0.52
2022-11-15T05:36:29.030Z,0.30
2022-11-15T05:39:27.522Z,0.40
2022-11-15T05:42:28.371Z,0.40
2022-11-15T05:45:27.907Z,0.50
2022-11-15T05:48:26.903Z,0.40
2022-11-15T05:51:25.553Z,0.43
2022-11-15T05:54:25.974Z,0.40
2022-11-15T05:57:24.184Z,0.35
2022-11-15T06:00:23.984Z,0.50
2022-11-15T06:03:22.184Z,0.50
2022-11-15T06:06:20.948Z,0.40
2022-11-15T06:09:19.807Z,0.60
2022-11-15T06:12:18.925Z,0.50
2022-11-15T06:15:17.369Z,0.40
2022-11-15T06:18:16.452Z,0.50
2022-11-15T06:21:14.702Z,0.40
2022-11-15T06:24:14.097Z,0.63
2022-11-15T06:27:13.466Z,0.40
2022-11-15T06:30:12.450Z,0.32
2022-11-15T06:33:10.625Z,0.50
2022-11-15T06:36:17.671Z,0.45
2022-11-15T06:39:16.063Z,0.45
2022-11-15T06:42:15.015Z,0.50
2022-11-15T06:45:13.178Z,0.55
2022-11-15T06:48:11.958Z,0.47
2022-11-15T06:51:10.335Z,0.60
2022-11-15T06:54:09.122Z,0.60
2022-11-15T06:57:07.566Z,0.70
2022-11-15T07:00:07.821Z,0.88
2022-11-15T07:03:06.353Z,0.75
2022-11-15T07:06:07.428Z,0.60
2022-11-15T07:09:06.138Z,0.73
2022-11-15T07:12:07.876Z,0.38
2022-11-15T07:15:06.860Z,0.88
2022-11-15T07:18:05.800Z,0.80
2022-11-15T07:21:05.615Z,0.73
2022-11-15T07:24:05.573Z,0.63
2022-11-15T07:27:03.749Z,0.88
2022-11-15T07:30:03.293Z,1.17
2022-11-15T07:33:02.774Z,1.10
2022-11-15T07:36:04.542Z,0.95
2022-11-15T07:39:03.300Z,1.00
2022-11-15T07:42:17.600Z,1.10
2022-11-15T07:45:16.074Z,1.00
2022-11-15T07:48:14.949Z,1.40
2022-11-15T07:51:16.103Z,1.23
2022-11-15T07:54:14.816Z,1.17
2022-11-15T07:57:12.959Z,1.60
2022-11-15T08:00:12.339Z,1.23
2022-11-15T08:03:13.722Z,1.55
2022-11-15T08:06:12.937Z,1.65
2022-11-15T08:09:11.263Z,1.60
2022-11-15T08:12:10.412Z,1.55
2022-11-15T08:15:08.834Z,1.92
2022-11-15T08:18:11.908Z,1.83
2022-11-15T08:21:15.634Z,2.00
2022-11-15T08:24:17.455Z,2.05
2022-11-15T08:27:16.773Z,1.88
2022-11-15T08:30:17.504Z,2.08
2022-11-15T08:33:16.497Z,2.35
2022-11-15T08:36:17.475Z,1.67
2022-11-15T08:39:15.806Z,2.08
2022-11-15T08:42:19.892Z,1.80
2022-11-15T08:45:19.007Z,1.90
2022-11-15T08:48:18.144Z,1.90
2022-11-15T08:51:16.342Z,2.20
2022-11-15T08:54:15.075Z,2.00
2022-11-15T08:57:13.329Z,1.60
2022-11-15T09:00:13.730Z,1.90
2022-11-15T09:03:12.098Z,2.17
2022-11-15T09:06:10.750Z,2.05
2022-11-15T09:09:08.966Z,2.20
2022-11-15T09:12:09.293Z,2.13
2022-11-15T09:15:08.209Z,1.42
2022-11-15T09:18:07.061Z,2.00
2022-11-15T09:21:05.896Z,2.17
2022-11-15T09:24:05.953Z,2.10
2022-11-15T09:30:17.196Z,1.60
2022-11-15T09:33:15.608Z,1.77
2022-11-15T09:36:14.533Z,2.05
2022-11-15T09:39:12.746Z,2.13
2022-11-15T09:42:47.451Z,1.30
2022-11-15T09:46:16.475Z,1.58
2022-11-15T09:49:17.924Z,1.67
2022-11-15T09:52:16.498Z,1.58
2022-11-15T09:55:22.921Z,1.30
2022-11-15T09:58:32.935Z,1.48
2022-11-15T10:01:55.858Z,1.23
2022-11-15T10:04:55.531Z,1.20
2022-11-15T10:08:08.230Z,1.52
2022-11-15T10:14:33.224Z,1.05
2022-11-15T10:17:53.215Z,1.20
2022-11-15T10:20:57.939Z,1.08
2022-11-15T10:23:56.414Z,1.20
2022-11-15T10:26:55.838Z,1.10
2022-11-15T10:29:54.140Z,1.25
2022-11-15T10:32:52.942Z,1.10
2022-11-15T10:36:11.359Z,0.90
2022-11-15T10:39:14.581Z,1.27
2022-11-15T10:42:29.583Z,1.58
2022-11-15T10:45:32.243Z,1.25
2022-11-15T10:48:31.126Z,1.70
2022-11-15T10:51:31.645Z,1.60
2022-11-15T10:54:37.685Z,1.70
2022-11-15T10:57:41.077Z,1.58
2022-11-15T11:00:40.997Z,1.35
2022-11-15T11:03:42.532Z,1.40
2022-11-15T11:06:57.693Z,1.80
2022-11-15T11:10:49.781Z,1.42
2022-11-15T11:13:41.100Z,1.90
2022-11-15T11:16:50.010Z,1.55
2022-11-15T11:20:13.510Z,1.70
2022-11-15T11:23:47.945Z,1.60
2022-11-15T11:27:11.925Z,1.50
2022-11-15T11:30:17.959Z,1.63
2022-11-15T11:33:23.279Z,1.60
2022-11-15T11:36:45.115Z,1.70
2022-11-15T11:40:13.820Z,1.30
2022-11-15T11:43:38.760Z,1.33
2022-11-15T11:47:03.208Z,1.50
2022-11-15T11:50:13.275Z,1.80
2022-11-15T11:53:25.483Z,1.60
2022-11-15T11:56:31.704Z,1.20
2022-11-15T11:59:48.057Z,1.58
2022-11-15T12:03:05.639Z,1.52
2022-11-15T12:06:22.773Z,1.30
2022-11-15T12:09:43.415Z,1.92
2022-11-15T12:12:50.707Z,1.30
2022-11-15T12:16:10.420Z,1.40
2022-11-15T12:19:10.380Z,1.25
2022-11-15T12:22:18.378Z,1.20
2022-11-15T12:25:35.376Z,1.20
2022-11-15T12:29:04.842Z,1.33
2022-11-15T12:32:06.573Z,1.20
2022-11-15T12:35:22.039Z,1.20
2022-11-15T12:38:55.963Z,1.30
2022-11-15T12:42:34.552Z,1.15
2022-11-15T12:45:38.384Z,0.98
2022-11-15T12:48:56.355Z,1.33
2022-11-15T12:52:07.391Z,1.40
2022-11-15T12:55:34.340Z,1.00
2022-11-15T12:58:53.729Z,0.98
2022-11-15T13:01:59.049Z,1.10
2022-11-15T13:05:37.293Z,1.17
2022-11-15T13:08:40.166Z,1.45
2022-11-15T13:11:54.012Z,1.05
2022-11-15T13:14:54.906Z,0.95
2022-11-15T13:17:55.405Z,1.13
2022-11-15T13:20:58.000Z,0.60
2022-11-15T13:23:59.573Z,1.00
2022-11-15T13:26:59.898Z,1.23
2022-11-15T13:29:58.260Z,1.02
2022-11-15T13:32:59.092Z,1.15
2022-11-15T13:36:00.570Z,1.25
2022-11-15T13:39:16.612Z,0.90
2022-11-15T13:42:19.555Z,0.75
2022-11-15T13:45:22.454Z,0.93
2022-11-15T13:48:20.650Z,0.90
2022-11-15T13:51:47.933Z,0.77
2022-11-15T13:55:02.238Z,0.75
2022-11-15T13:58:07.581Z,0.90
2022-11-15T14:01:08.550Z,0.45
2022-11-15T14:04:07.610Z,0.70
2022-11-15T14:07:05.822Z,0.50
2022-11-15T14:10:27.231Z,0.50
2022-11-15T14:13:33.695Z,0.60
2022-11-15T14:16:38.885Z,0.25
2022-11-15T14:19:39.282Z,0.55
2022-11-15T14:22:39.329Z,0.40
2022-11-15T14:25:38.141Z,0.22
2022-11-15T14:28:39.781Z,0.32
2022-11-15T14:31:43.524Z,0.20
2022-11-15T14:34:42.897Z,0.25
2022-11-15T14:37:41.125Z,0.35
2022-11-15T14:40:40.100Z,0.45
2022-11-15T14:43:38.291Z,0.35
2022-11-15T14:46:37.045Z,0.32
2022-11-15T14:49:35.364Z,0.20
2022-11-15T14:52:36.904Z,0.30
2022-11-15T14:55:37.730Z,0.30
2022-11-15T14:58:36.821Z,0.30
2022-11-15T15:01:35.053Z,0.40
2022-11-15T15:04:33.768Z,0.30
2022-11-15T15:07:31.993Z,0.40
2022-11-15T15:10:40.766Z,0.45
2022-11-15T15:13:40.026Z,0.35
2022-11-15T15:16:39.725Z,0.22
2022-11-15T15:19:38.298Z,0.38
2022-11-15T15:22:37.504Z,0.30
2022-11-15T15:25:36.935Z,0.70
2022-11-15T15:28:37.055Z,0.50
2022-11-15T15:31:35.818Z,0.70
2022-11-15T15:37:52.768Z,0.50
2022-11-15T15:40:51.898Z,0.50
2022-11-15T15:43:50.407Z,0.63
2022-11-15T15:46:48.982Z,0.40
2022-11-15T15:49:47.874Z,0.65
2022-11-15T15:52:46.803Z,0.55
2022-11-15T15:55:45.183Z,0.50
2022-11-15T15:58:43.996Z,0.40
2022-11-15T16:01:42.870Z,0.60
2022-11-15T16:04:42.039Z,0.50
2022-11-15T16:07:42.050Z,0.50
2022-11-15T16:10:40.726Z,0.55
2022-11-15T16:13:39.068Z,0.55
2022-11-15T16:16:39.283Z,0.50
2022-11-15T16:19:37.834Z,0.70
2022-11-15T16:22:36.449Z,0.40
2022-11-15T16:25:40.206Z,0.40
2022-11-15T16:28:38.980Z,0.50
2022-11-15T16:31:37.881Z,0.60
2022-11-15T16:34:41.108Z,0.57
2022-11-15T16:37:42.186Z,0.65
2022-11-15T16:40:40.789Z,0.50
2022-11-15T16:43:39.388Z,0.40
2022-11-15T16:46:39.174Z,0.40
2022-11-15T16:49:37.524Z,0.32
2022-11-15T16:52:36.255Z,0.60
2022-11-15T16:55:34.688Z,0.40
2022-11-15T16:58:34.079Z,0.50
2022-11-15T17:01:36.380Z,0.38
2022-11-15T17:04:35.046Z,0.52
2022-11-15T17:07:33.369Z,0.50
2022-11-15T17:10:32.089Z,0.40
2022-11-15T17:13:32.325Z,0.50
2022-11-15T17:16:30.898Z,0.40
2022-11-15T17:19:29.427Z,0.47
2022-11-15T17:22:28.916Z,0.30
2022-11-15T17:25:27.611Z,0.40
2022-11-15T17:28:26.429Z,0.50
2022-11-15T17:31:26.189Z,0.40
2022-11-15T17:34:24.788Z,0.60
2022-11-15T17:37:23.445Z,0.43
2022-11-15T17:40:22.127Z,0.40
2022-11-15T17:43:20.418Z,0.70
2022-11-15T17:46:21.609Z,0.40
2022-11-15T17:49:19.969Z,0.43
2022-11-15T17:52:18.651Z,0.70
2022-11-15T17:55:17.243Z,0.75
2022-11-15T17:58:19.076Z,0.90
2022-11-15T18:01:23.408Z,0.65
2022-11-15T18:04:24.469Z,1.10
2022-11-15T18:07:23.559Z,1.00
2022-11-15T18:10:22.208Z,1.20
2022-11-15T18:13:20.521Z,0.93
2022-11-15T18:16:21.175Z,1.10
2022-11-15T18:19:19.812Z,1.25
2022-11-15T18:22:20.165Z,1.30
2022-11-15T18:25:18.802Z,1.58
2022-11-15T18:28:17.413Z,1.60
2022-11-15T18:31:20.081Z,1.63
2022-11-15T18:34:18.686Z,1.55
2022-11-15T18:37:16.975Z,1.42
2022-11-15T18:40:16.340Z,2.00
2022-11-15T18:43:14.622Z,1.42
2022-11-15T18:46:16.408Z,1.52
2022-11-15T18:49:17.346Z,1.33
2022-11-15T18:52:16.187Z,2.00
2022-11-15T18:55:15.118Z,1.40
2022-11-15T18:58:14.001Z,1.30
2022-11-15T19:01:15.607Z,1.40
2022-11-15T19:04:17.932Z,1.40
2022-11-15T19:07:16.238Z,1.20
2022-11-15T19:10:14.917Z,1.40
2022-11-15T19:13:13.204Z,1.42
2022-11-15T19:16:14.326Z,0.90
2022-11-15T19:19:18.127Z,1.00
2022-11-15T19:25:19.420Z,1.13
2022-11-15T19:28:18.262Z,1.10
2022-11-15T19:31:17.742Z,1.00
2022-11-15T19:34:16.949Z,1.00
2022-11-15T19:37:15.230Z,1.23
2022-11-15T19:40:13.988Z,0.95
2022-11-15T19:43:13.988Z,1.10
2022-11-15T19:46:13.408Z,0.98
2022-11-15T19:49:11.924Z,0.90
2022-11-15T19:52:10.553Z,0.98
2022-11-15T19:55:09.324Z,1.00
2022-11-15T19:58:08.078Z,1.05
2022-11-15T20:01:13.166Z,0.80
2022-11-15T20:04:11.976Z,1.10
2022-11-15T20:07:11.509Z,1.15
2022-11-15T20:10:10.748Z,1.42
2022-11-15T20:13:09.416Z,1.08
2022-11-15T20:16:10.283Z,1.20
2022-11-15T20:19:09.427Z,1.10
2022-11-15T20:22:08.377Z,1.02
2022-11-15T20:25:07.254Z,1.40
2022-11-15T20:28:08.116Z,0.98
2022-11-15T20:31:07.588Z,1.30
2022-11-15T20:34:06.441Z,1.30
2022-11-15T20:37:05.094Z,1.25
2022-11-15T20:40:04.429Z,1.20
2022-11-15T20:43:03.887Z,1.58
2022-11-15T20:46:02.832Z,1.30
2022-11-15T20:49:01.641Z,1.50
2022-11-15T20:52:01.054Z,1.48
2022-11-15T20:55:00.058Z,1.60
2022-11-15T20:57:58.779Z,1.60
2022-11-15T21:00:57.709Z,2.00
2022-11-15T21:03:57.313Z,1.95
2022-11-15T21:06:55.630Z,2.00
2022-11-15T21:10:09.774Z,2.13
2022-11-15T21:13:08.341Z,1.90
2022-11-15T21:16:07.587Z,1.90
2022-11-15T21:19:07.044Z,2.10
2022-11-15T21:22:06.989Z,1.60
2022-11-15T21:25:06.388Z,2.25
2022-11-15T21:28:05.061Z,1.98
2022-11-15T21:31:03.370Z,2.25
2022-11-15T21:34:03.145Z,2.20
2022-11-15T21:37:01.437Z,1.98
2022-11-15T21:40:00.138Z,2.38
2022-11-15T21:42:58.560Z,2.20
2022-11-15T21:45:59.839Z,1.95
2022-11-15T21:48:58.888Z,2.20
2022-11-15T21:51:57.629Z,1.65
2022-11-15T21:54:56.284Z,1.80
2022-11-15T21:57:55.336Z,1.48
2022-11-15T22:01:11.222Z,1.40
2022-11-15T22:04:10.498Z,1.67
2022-11-15T22:07:09.003Z,1.50
2022-11-15T22:10:08.259Z,1.70
2022-11-15T22:13:06.619Z,1.60
2022-11-15T22:16:05.618Z,1.75
2022-11-15T22:19:04.608Z,1.50
2022-11-15T22:22:03.213Z,1.70
2022-11-15T22:25:01.989Z,1.33
2022-11-15T22:28:00.609Z,1.13
2022-11-15T22:30:59.936Z,1.27
2022-11-15T22:33:58.827Z,1.63
2022-11-15T22:40:16.127Z,1.08
2022-11-15T22:43:16.089Z,0.85
2022-11-15T22:46:15.111Z,1.00
2022-11-15T22:49:13.393Z,0.73
2022-11-15T22:52:12.415Z,0.75
2022-11-15T22:55:11.037Z,0.90
2022-11-15T22:58:09.749Z,0.65
2022-11-15T23:01:08.381Z,0.98
2022-11-15T23:04:07.252Z,0.60
2022-11-15T23:07:05.648Z,0.55
2022-11-15T23:10:19.808Z,0.63
2022-11-15T23:13:18.459Z,0.68
2022-11-15T23:16:26.150Z,0.60
2022-11-15T23:22:40.045Z,0.50
2022-11-15T23:25:38.399Z,0.50
2022-11-15T23:28:37.114Z,0.45
2022-11-15T23:32:00.750Z,0.50
2022-11-15T23:35:00.620Z,0.30
2022-11-15T23:37:58.920Z,0.30
2022-11-15T23:40:57.461Z,0.40
2022-11-15T23:43:56.097Z,0.52
2022-11-15T23:46:54.936Z,0.30
2022-11-15T23:49:53.302Z,0.47
2022-11-15T23:52:52.056Z,0.30
2022-11-15T23:56:08.045Z,0.20
2022-11-15T23:59:07.083Z,0.20
